sensor_id;sensor_type;location;lat;lon;timestamp;temperature;humidity
42755;DHT22;28407;51.830;5.684;2024-03-08T00:01:54;6.60;76.10
42755;DHT22;28407;51.830;5.684;2024-03-08T00:03:54;6.60;76.10
42755;DHT22;28407;51.830;5.684;2024-03-08T00:05:55;6.60;76.00
42755;DHT22;28407;51.830;5.684;2024-03-08T00:07:56;6.60;76.00
42755;DHT22;28407;51.830;5.684;2024-03-08T00:09:57;6.60;76.00
42755;DHT22;28407;51.830;5.684;2024-03-08T00:11:58;6.60;75.90
42755;DHT22;28407;51.830;5.684;2024-03-08T00:13:58;6.60;75.90
42755;DHT22;28407;51.830;5.684;2024-03-08T00:15:59;6.60;75.90
42755;DHT22;28407;51.830;5.684;2024-03-08T00:18:00;6.60;75.80
42755;DHT22;28407;51.830;5.684;2024-03-08T00:20:00;6.60;75.80
42755;DHT22;28407;51.830;5.684;2024-03-08T00:22:01;6.60;75.90
42755;DHT22;28407;51.830;5.684;2024-03-08T00:24:02;6.50;75.80
42755;DHT22;28407;51.830;5.684;2024-03-08T00:26:03;6.60;75.90
42755;DHT22;28407;51.830;5.684;2024-03-08T00:28:04;6.60;75.90
42755;DHT22;28407;51.830;5.684;2024-03-08T00:30:07;6.60;75.80
42755;DHT22;28407;51.830;5.684;2024-03-08T00:32:08;6.60;75.80
42755;DHT22;28407;51.830;5.684;2024-03-08T00:34:09;6.60;75.70
42755;DHT22;28407;51.830;5.684;2024-03-08T00:36:12;6.60;75.70
42755;DHT22;28407;51.830;5.684;2024-03-08T00:38:13;6.50;75.50
42755;DHT22;28407;51.830;5.684;2024-03-08T00:40:14;6.50;75.50
42755;DHT22;28407;51.830;5.684;2024-03-08T00:42:15;6.50;75.60
42755;DHT22;28407;51.830;5.684;2024-03-08T00:44:15;6.50;75.60
42755;DHT22;28407;51.830;5.684;2024-03-08T00:46:16;6.50;75.60
42755;DHT22;28407;51.830;5.684;2024-03-08T00:48:17;6.50;75.50
42755;DHT22;28407;51.830;5.684;2024-03-08T00:50:18;6.50;75.50
42755;DHT22;28407;51.830;5.684;2024-03-08T00:52:19;6.50;75.50
42755;DHT22;28407;51.830;5.684;2024-03-08T00:54:19;6.50;75.60
42755;DHT22;28407;51.830;5.684;2024-03-08T00:56:20;6.40;75.90
42755;DHT22;28407;51.830;5.684;2024-03-08T00:58:21;6.40;75.40
42755;DHT22;28407;51.830;5.684;2024-03-08T01:00:24;6.40;75.40
42755;DHT22;28407;51.830;5.684;2024-03-08T01:02:28;6.30;75.50
42755;DHT22;28407;51.830;5.684;2024-03-08T01:04:29;6.40;75.50
42755;DHT22;28407;51.830;5.684;2024-03-08T01:06:30;6.40;75.50
42755;DHT22;28407;51.830;5.684;2024-03-08T01:08:31;6.40;75.50
42755;DHT22;28407;51.830;5.684;2024-03-08T01:10:32;6.40;75.40
42755;DHT22;28407;51.830;5.684;2024-03-08T01:12:32;6.40;75.40
42755;DHT22;28407;51.830;5.684;2024-03-08T01:14:33;6.30;75.30
42755;DHT22;28407;51.830;5.684;2024-03-08T01:16:34;6.30;75.40
42755;DHT22;28407;51.830;5.684;2024-03-08T01:18:35;6.30;75.40
42755;DHT22;28407;51.830;5.684;2024-03-08T01:20:36;6.30;75.50
42755;DHT22;28407;51.830;5.684;2024-03-08T01:22:36;6.20;75.40
42755;DHT22;28407;51.830;5.684;2024-03-08T01:24:37;6.30;75.40
42755;DHT22;28407;51.830;5.684;2024-03-08T01:26:40;6.20;75.30
42755;DHT22;28407;51.830;5.684;2024-03-08T01:28:41;6.20;75.30
42755;DHT22;28407;51.830;5.684;2024-03-08T01:30:45;6.20;75.30
42755;DHT22;28407;51.830;5.684;2024-03-08T01:32:45;6.20;75.20
42755;DHT22;28407;51.830;5.684;2024-03-08T01:34:46;6.20;75.20
42755;DHT22;28407;51.830;5.684;2024-03-08T01:36:47;6.20;75.30
42755;DHT22;28407;51.830;5.684;2024-03-08T01:38:47;6.20;75.30
42755;DHT22;28407;51.830;5.684;2024-03-08T01:40:49;6.20;75.30
42755;DHT22;28407;51.830;5.684;2024-03-08T01:42:50;6.20;75.30
42755;DHT22;28407;51.830;5.684;2024-03-08T01:44:50;6.20;75.20
42755;DHT22;28407;51.830;5.684;2024-03-08T01:46:53;6.20;75.20
42755;DHT22;28407;51.830;5.684;2024-03-08T01:48:54;6.20;75.10
42755;DHT22;28407;51.830;5.684;2024-03-08T01:50:58;6.20;75.10
42755;DHT22;28407;51.830;5.684;2024-03-08T01:53:00;6.10;75.10
42755;DHT22;28407;51.830;5.684;2024-03-08T01:55:03;6.10;75.00
42755;DHT22;28407;51.830;5.684;2024-03-08T01:57:07;6.10;75.10
42755;DHT22;28407;51.830;5.684;2024-03-08T01:59:09;6.10;75.10
42755;DHT22;28407;51.830;5.684;2024-03-08T02:01:12;6.00;75.10
42755;DHT22;28407;51.830;5.684;2024-03-08T02:03:18;6.00;75.00
42755;DHT22;28407;51.830;5.684;2024-03-08T02:05:19;6.00;75.10
42755;DHT22;28407;51.830;5.684;2024-03-08T02:07:20;6.00;75.10
42755;DHT22;28407;51.830;5.684;2024-03-08T02:09:22;6.00;75.00
42755;DHT22;28407;51.830;5.684;2024-03-08T02:11:25;6.00;75.00
42755;DHT22;28407;51.830;5.684;2024-03-08T02:13:25;5.90;75.00
42755;DHT22;28407;51.830;5.684;2024-03-08T02:15:28;5.90;75.00
42755;DHT22;28407;51.830;5.684;2024-03-08T02:17:47;5.90;75.00
42755;DHT22;28407;51.830;5.684;2024-03-08T02:19:48;5.90;75.00
42755;DHT22;28407;51.830;5.684;2024-03-08T02:21:49;5.80;75.00
42755;DHT22;28407;51.830;5.684;2024-03-08T02:23:50;5.80;75.00
42755;DHT22;28407;51.830;5.684;2024-03-08T02:25:53;5.80;75.00
42755;DHT22;28407;51.830;5.684;2024-03-08T02:27:54;5.80;75.00
42755;DHT22;28407;51.830;5.684;2024-03-08T02:29:55;5.80;75.00
42755;DHT22;28407;51.830;5.684;2024-03-08T02:31:56;5.70;75.00
42755;DHT22;28407;51.830;5.684;2024-03-08T02:33:57;5.70;75.00
42755;DHT22;28407;51.830;5.684;2024-03-08T02:35:58;5.60;74.90
42755;DHT22;28407;51.830;5.684;2024-03-08T02:37:59;5.60;75.00
42755;DHT22;28407;51.830;5.684;2024-03-08T02:40:01;5.60;75.00
42755;DHT22;28407;51.830;5.684;2024-03-08T02:42:01;5.60;75.00
42755;DHT22;28407;51.830;5.684;2024-03-08T02:44:02;5.60;74.90
42755;DHT22;28407;51.830;5.684;2024-03-08T02:46:04;5.60;74.90
42755;DHT22;28407;51.830;5.684;2024-03-08T02:48:05;5.50;75.50
42755;DHT22;28407;51.830;5.684;2024-03-08T02:50:09;5.50;74.80
42755;DHT22;28407;51.830;5.684;2024-03-08T02:52:10;5.50;74.90
42755;DHT22;28407;51.830;5.684;2024-03-08T02:54:11;5.50;74.90
42755;DHT22;28407;51.830;5.684;2024-03-08T02:56:12;5.50;74.80
42755;DHT22;28407;51.830;5.684;2024-03-08T02:58:17;5.50;74.70
42755;DHT22;28407;51.830;5.684;2024-03-08T03:00:19;5.50;74.80
42755;DHT22;28407;51.830;5.684;2024-03-08T03:02:20;5.50;74.70
42755;DHT22;28407;51.830;5.684;2024-03-08T03:04:21;5.40;74.60
42755;DHT22;28407;51.830;5.684;2024-03-08T03:06:22;5.50;74.60
42755;DHT22;28407;51.830;5.684;2024-03-08T03:08:23;5.50;74.60
42755;DHT22;28407;51.830;5.684;2024-03-08T03:10:24;5.50;74.50
42755;DHT22;28407;51.830;5.684;2024-03-08T03:12:28;5.50;74.50
42755;DHT22;28407;51.830;5.684;2024-03-08T03:14:29;5.50;74.40
42755;DHT22;28407;51.830;5.684;2024-03-08T03:16:29;5.50;74.40
42755;DHT22;28407;51.830;5.684;2024-03-08T03:18:30;5.50;74.40
42755;DHT22;28407;51.830;5.684;2024-03-08T03:20:33;5.50;74.30
42755;DHT22;28407;51.830;5.684;2024-03-08T03:22:37;5.50;74.30
42755;DHT22;28407;51.830;5.684;2024-03-08T03:24:38;5.50;74.20
42755;DHT22;28407;51.830;5.684;2024-03-08T03:26:39;5.40;74.10
42755;DHT22;28407;51.830;5.684;2024-03-08T03:28:41;5.40;74.20
42755;DHT22;28407;51.830;5.684;2024-03-08T03:30:42;5.40;74.10
42755;DHT22;28407;51.830;5.684;2024-03-08T03:32:44;5.30;74.00
42755;DHT22;28407;51.830;5.684;2024-03-08T03:34:47;5.30;74.10
42755;DHT22;28407;51.830;5.684;2024-03-08T03:36:48;5.30;74.10
42755;DHT22;28407;51.830;5.684;2024-03-08T03:38:49;5.30;74.10
42755;DHT22;28407;51.830;5.684;2024-03-08T03:40:49;5.30;74.10
42755;DHT22;28407;51.830;5.684;2024-03-08T03:42:52;5.30;74.10
42755;DHT22;28407;51.830;5.684;2024-03-08T03:44:53;5.30;74.10
42755;DHT22;28407;51.830;5.684;2024-03-08T03:46:54;5.30;74.10
42755;DHT22;28407;51.830;5.684;2024-03-08T03:48:54;5.30;74.00
42755;DHT22;28407;51.830;5.684;2024-03-08T03:50:56;5.30;74.00
42755;DHT22;28407;51.830;5.684;2024-03-08T03:52:56;5.30;74.00
42755;DHT22;28407;51.830;5.684;2024-03-08T03:54:57;5.30;74.10
42755;DHT22;28407;51.830;5.684;2024-03-08T03:56:59;5.20;74.00
42755;DHT22;28407;51.830;5.684;2024-03-08T03:59:00;5.20;74.00
42755;DHT22;28407;51.830;5.684;2024-03-08T04:01:01;5.20;73.90
42755;DHT22;28407;51.830;5.684;2024-03-08T04:03:04;5.20;73.80
42755;DHT22;28407;51.830;5.684;2024-03-08T04:05:09;5.20;73.90
42755;DHT22;28407;51.830;5.684;2024-03-08T04:07:10;5.20;73.90
42755;DHT22;28407;51.830;5.684;2024-03-08T04:09:11;5.20;73.90
42755;DHT22;28407;51.830;5.684;2024-03-08T04:11:12;5.20;73.90
42755;DHT22;28407;51.830;5.684;2024-03-08T04:13:13;5.10;73.80
42755;DHT22;28407;51.830;5.684;2024-03-08T04:15:16;5.10;73.90
42755;DHT22;28407;51.830;5.684;2024-03-08T04:17:16;5.10;73.90
42755;DHT22;28407;51.830;5.684;2024-03-08T04:19:20;5.10;73.80
42755;DHT22;28407;51.830;5.684;2024-03-08T04:21:21;5.20;73.80
42755;DHT22;28407;51.830;5.684;2024-03-08T04:23:21;5.20;73.80
42755;DHT22;28407;51.830;5.684;2024-03-08T04:25:22;5.10;73.70
42755;DHT22;28407;51.830;5.684;2024-03-08T04:27:23;5.10;73.70
42755;DHT22;28407;51.830;5.684;2024-03-08T04:29:24;5.10;74.40
42755;DHT22;28407;51.830;5.684;2024-03-08T04:31:25;5.10;73.70
42755;DHT22;28407;51.830;5.684;2024-03-08T04:33:27;5.10;74.50
42755;DHT22;28407;51.830;5.684;2024-03-08T04:35:31;5.10;73.80
42755;DHT22;28407;51.830;5.684;2024-03-08T04:37:31;5.10;73.80
42755;DHT22;28407;51.830;5.684;2024-03-08T04:39:32;5.10;73.70
42755;DHT22;28407;51.830;5.684;2024-03-08T04:41:33;5.10;73.70
42755;DHT22;28407;51.830;5.684;2024-03-08T04:43:34;5.10;73.70
42755;DHT22;28407;51.830;5.684;2024-03-08T04:45:36;5.00;73.70
42755;DHT22;28407;51.830;5.684;2024-03-08T04:47:37;5.00;73.70
42755;DHT22;28407;51.830;5.684;2024-03-08T04:49:37;5.00;73.70
42755;DHT22;28407;51.830;5.684;2024-03-08T04:51:38;5.00;73.70
42755;DHT22;28407;51.830;5.684;2024-03-08T04:53:39;5.00;74.40
42755;DHT22;28407;51.830;5.684;2024-03-08T04:55:39;5.00;73.70
42755;DHT22;28407;51.830;5.684;2024-03-08T04:57:40;5.00;73.70
42755;DHT22;28407;51.830;5.684;2024-03-08T04:59:42;5.00;74.40
42755;DHT22;28407;51.830;5.684;2024-03-08T05:01:43;4.90;73.70
42755;DHT22;28407;51.830;5.684;2024-03-08T05:03:44;4.90;73.80
42755;DHT22;28407;51.830;5.684;2024-03-08T05:05:44;4.90;73.70
42755;DHT22;28407;51.830;5.684;2024-03-08T05:07:45;4.90;73.70
42755;DHT22;28407;51.830;5.684;2024-03-08T05:09:46;4.90;73.80
42755;DHT22;28407;51.830;5.684;2024-03-08T05:11:51;4.90;73.70
42755;DHT22;28407;51.830;5.684;2024-03-08T05:13:52;4.90;73.70
42755;DHT22;28407;51.830;5.684;2024-03-08T05:15:54;4.90;73.70
42755;DHT22;28407;51.830;5.684;2024-03-08T05:17:54;4.90;73.70
42755;DHT22;28407;51.830;5.684;2024-03-08T05:19:56;4.90;73.60
42755;DHT22;28407;51.830;5.684;2024-03-08T05:21:57;4.90;73.70
42755;DHT22;28407;51.830;5.684;2024-03-08T05:23:58;4.90;73.70
42755;DHT22;28407;51.830;5.684;2024-03-08T05:26:01;4.90;74.40
42755;DHT22;28407;51.830;5.684;2024-03-08T05:28:02;4.80;73.60
42755;DHT22;28407;51.830;5.684;2024-03-08T05:30:05;4.80;73.70
42755;DHT22;28407;51.830;5.684;2024-03-08T05:32:06;4.80;73.70
42755;DHT22;28407;51.830;5.684;2024-03-08T05:34:07;4.80;73.70
42755;DHT22;28407;51.830;5.684;2024-03-08T05:36:10;4.80;73.70
42755;DHT22;28407;51.830;5.684;2024-03-08T05:38:12;4.80;73.60
42755;DHT22;28407;51.830;5.684;2024-03-08T05:40:13;4.70;73.70
42755;DHT22;28407;51.830;5.684;2024-03-08T05:42:14;4.70;73.70
42755;DHT22;28407;51.830;5.684;2024-03-08T05:44:14;4.70;73.80
42755;DHT22;28407;51.830;5.684;2024-03-08T05:46:17;4.70;73.80
42755;DHT22;28407;51.830;5.684;2024-03-08T05:48:18;4.70;74.30
42755;DHT22;28407;51.830;5.684;2024-03-08T05:50:19;4.80;73.80
42755;DHT22;28407;51.830;5.684;2024-03-08T05:52:20;4.80;73.70
42755;DHT22;28407;51.830;5.684;2024-03-08T05:54:20;4.80;73.70
42755;DHT22;28407;51.830;5.684;2024-03-08T05:56:24;4.80;73.60
42755;DHT22;28407;51.830;5.684;2024-03-08T05:58:25;4.70;73.50
42755;DHT22;28407;51.830;5.684;2024-03-08T06:00:26;4.70;73.50
42755;DHT22;28407;51.830;5.684;2024-03-08T06:02:27;4.70;73.50
42755;DHT22;28407;51.830;5.684;2024-03-08T06:04:28;4.70;73.60
42755;DHT22;28407;51.830;5.684;2024-03-08T06:06:29;4.70;73.70
42755;DHT22;28407;51.830;5.684;2024-03-08T06:08:30;4.70;73.70
42755;DHT22;28407;51.830;5.684;2024-03-08T06:10:31;4.60;73.70
42755;DHT22;28407;51.830;5.684;2024-03-08T06:12:32;4.60;73.70
42755;DHT22;28407;51.830;5.684;2024-03-08T06:14:37;4.60;73.70
42755;DHT22;28407;51.830;5.684;2024-03-08T06:16:38;4.60;74.40
42755;DHT22;28407;51.830;5.684;2024-03-08T06:18:39;4.60;73.60
42755;DHT22;28407;51.830;5.684;2024-03-08T06:20:39;4.60;73.60
42755;DHT22;28407;51.830;5.684;2024-03-08T06:22:44;4.60;73.70
42755;DHT22;28407;51.830;5.684;2024-03-08T06:24:45;4.60;73.70
42755;DHT22;28407;51.830;5.684;2024-03-08T06:26:46;4.60;73.70
42755;DHT22;28407;51.830;5.684;2024-03-08T06:28:46;4.60;73.70
42755;DHT22;28407;51.830;5.684;2024-03-08T06:30:47;4.60;73.60
42755;DHT22;28407;51.830;5.684;2024-03-08T06:32:48;4.60;73.70
42755;DHT22;28407;51.830;5.684;2024-03-08T06:34:49;4.60;73.70
42755;DHT22;28407;51.830;5.684;2024-03-08T06:36:50;4.60;73.70
42755;DHT22;28407;51.830;5.684;2024-03-08T06:38:52;4.60;73.70
42755;DHT22;28407;51.830;5.684;2024-03-08T06:40:54;4.60;73.60
42755;DHT22;28407;51.830;5.684;2024-03-08T06:42:55;4.60;73.50
42755;DHT22;28407;51.830;5.684;2024-03-08T06:44:55;4.60;73.50
42755;DHT22;28407;51.830;5.684;2024-03-08T06:47:00;4.50;73.60
42755;DHT22;28407;51.830;5.684;2024-03-08T06:49:01;4.50;73.60
42755;DHT22;28407;51.830;5.684;2024-03-08T06:51:03;4.50;73.70
42755;DHT22;28407;51.830;5.684;2024-03-08T06:53:05;4.50;73.70
42755;DHT22;28407;51.830;5.684;2024-03-08T06:55:06;4.50;74.30
42755;DHT22;28407;51.830;5.684;2024-03-08T06:57:09;4.50;73.60
42755;DHT22;28407;51.830;5.684;2024-03-08T06:59:10;4.50;73.70
42755;DHT22;28407;51.830;5.684;2024-03-08T07:01:11;4.50;73.60
42755;DHT22;28407;51.830;5.684;2024-03-08T07:03:15;4.50;73.60
42755;DHT22;28407;51.830;5.684;2024-03-08T07:05:17;4.50;73.70
42755;DHT22;28407;51.830;5.684;2024-03-08T07:07:18;4.50;73.70
42755;DHT22;28407;51.830;5.684;2024-03-08T07:09:21;4.60;73.60
42755;DHT22;28407;51.830;5.684;2024-03-08T07:11:21;4.60;73.60
42755;DHT22;28407;51.830;5.684;2024-03-08T07:13:22;4.60;73.60
42755;DHT22;28407;51.830;5.684;2024-03-08T07:15:23;4.60;73.60
42755;DHT22;28407;51.830;5.684;2024-03-08T07:17:23;4.60;73.60
42755;DHT22;28407;51.830;5.684;2024-03-08T07:19:25;4.60;73.60
42755;DHT22;28407;51.830;5.684;2024-03-08T07:21:26;4.60;73.50
42755;DHT22;28407;51.830;5.684;2024-03-08T07:23:26;4.60;73.50
42755;DHT22;28407;51.830;5.684;2024-03-08T07:25:45;4.60;73.50
42755;DHT22;28407;51.830;5.684;2024-03-08T07:27:50;4.60;73.50
42755;DHT22;28407;51.830;5.684;2024-03-08T07:29:54;4.60;73.40
42755;DHT22;28407;51.830;5.684;2024-03-08T07:31:56;4.60;73.30
42755;DHT22;28407;51.830;5.684;2024-03-08T07:34:12;4.60;73.30
42755;DHT22;28407;51.830;5.684;2024-03-08T07:36:13;4.70;73.40
42755;DHT22;28407;51.830;5.684;2024-03-08T07:38:15;4.70;73.40
42755;DHT22;28407;51.830;5.684;2024-03-08T07:40:17;4.70;73.40
42755;DHT22;28407;51.830;5.684;2024-03-08T07:42:18;4.70;73.40
42755;DHT22;28407;51.830;5.684;2024-03-08T07:44:19;4.70;73.20
42755;DHT22;28407;51.830;5.684;2024-03-08T07:46:20;4.80;73.20
42755;DHT22;28407;51.830;5.684;2024-03-08T07:48:21;4.80;73.30
42755;DHT22;28407;51.830;5.684;2024-03-08T07:50:22;4.80;73.20
42755;DHT22;28407;51.830;5.684;2024-03-08T07:52:23;4.80;73.20
42755;DHT22;28407;51.830;5.684;2024-03-08T07:54:24;4.80;73.10
42755;DHT22;28407;51.830;5.684;2024-03-08T07:56:26;4.90;73.10
42755;DHT22;28407;51.830;5.684;2024-03-08T07:58:27;4.80;73.10
42755;DHT22;28407;51.830;5.684;2024-03-08T08:00:31;4.90;73.10
42755;DHT22;28407;51.830;5.684;2024-03-08T08:02:33;4.90;73.10
42755;DHT22;28407;51.830;5.684;2024-03-08T08:04:34;4.90;73.00
42755;DHT22;28407;51.830;5.684;2024-03-08T08:06:35;4.90;73.00
42755;DHT22;28407;51.830;5.684;2024-03-08T08:08:38;5.00;73.10
42755;DHT22;28407;51.830;5.684;2024-03-08T08:10:39;5.00;73.00
42755;DHT22;28407;51.830;5.684;2024-03-08T08:12:39;5.00;73.00
42755;DHT22;28407;51.830;5.684;2024-03-08T08:14:42;5.00;73.00
42755;DHT22;28407;51.830;5.684;2024-03-08T08:16:43;5.00;72.90
42755;DHT22;28407;51.830;5.684;2024-03-08T08:18:45;5.10;72.90
42755;DHT22;28407;51.830;5.684;2024-03-08T08:20:46;5.10;72.90
42755;DHT22;28407;51.830;5.684;2024-03-08T08:22:47;5.10;72.80
42755;DHT22;28407;51.830;5.684;2024-03-08T08:24:48;5.10;72.90
42755;DHT22;28407;51.830;5.684;2024-03-08T08:26:49;5.10;72.80
42755;DHT22;28407;51.830;5.684;2024-03-08T08:28:50;5.20;72.80
42755;DHT22;28407;51.830;5.684;2024-03-08T08:30:51;5.20;72.70
42755;DHT22;28407;51.830;5.684;2024-03-08T08:32:51;5.30;72.80
42755;DHT22;28407;51.830;5.684;2024-03-08T08:34:52;5.30;72.70
42755;DHT22;28407;51.830;5.684;2024-03-08T08:36:53;5.30;72.60
42755;DHT22;28407;51.830;5.684;2024-03-08T08:38:55;5.40;72.70
42755;DHT22;28407;51.830;5.684;2024-03-08T08:40:56;5.40;72.60
42755;DHT22;28407;51.830;5.684;2024-03-08T08:43:00;5.40;72.60
42755;DHT22;28407;51.830;5.684;2024-03-08T08:45:01;5.50;72.70
42755;DHT22;28407;51.830;5.684;2024-03-08T08:47:08;5.50;72.60
42755;DHT22;28407;51.830;5.684;2024-03-08T08:49:08;5.50;72.60
42755;DHT22;28407;51.830;5.684;2024-03-08T08:51:15;5.60;72.60
42755;DHT22;28407;51.830;5.684;2024-03-08T08:53:18;5.60;72.50
42755;DHT22;28407;51.830;5.684;2024-03-08T08:55:19;5.60;72.50
42755;DHT22;28407;51.830;5.684;2024-03-08T08:57:25;5.60;72.50
42755;DHT22;28407;51.830;5.684;2024-03-08T08:59:27;5.70;72.50
42755;DHT22;28407;51.830;5.684;2024-03-08T09:01:28;5.70;72.50
42755;DHT22;28407;51.830;5.684;2024-03-08T09:03:29;5.70;72.50
42755;DHT22;28407;51.830;5.684;2024-03-08T09:05:30;5.70;72.50
42755;DHT22;28407;51.830;5.684;2024-03-08T09:07:31;5.80;72.50
42755;DHT22;28407;51.830;5.684;2024-03-08T09:09:33;5.80;72.50
42755;DHT22;28407;51.830;5.684;2024-03-08T09:11:33;5.90;72.40
42755;DHT22;28407;51.830;5.684;2024-03-08T09:13:34;5.90;72.20
42755;DHT22;28407;51.830;5.684;2024-03-08T09:15:35;6.00;72.10
42755;DHT22;28407;51.830;5.684;2024-03-08T09:17:37;6.10;72.10
42755;DHT22;28407;51.830;5.684;2024-03-08T09:19:41;6.20;72.00
42755;DHT22;28407;51.830;5.684;2024-03-08T09:21:42;6.20;71.80
42755;DHT22;28407;51.830;5.684;2024-03-08T09:23:42;6.30;71.70
42755;DHT22;28407;51.830;5.684;2024-03-08T09:25:45;6.40;71.70
42755;DHT22;28407;51.830;5.684;2024-03-08T09:27:47;6.40;71.60
42755;DHT22;28407;51.830;5.684;2024-03-08T09:29:47;6.40;71.50
42755;DHT22;28407;51.830;5.684;2024-03-08T09:31:48;6.50;71.50
42755;DHT22;28407;51.830;5.684;2024-03-08T09:33:49;6.50;71.50
42755;DHT22;28407;51.830;5.684;2024-03-08T09:35:51;6.60;71.40
42755;DHT22;28407;51.830;5.684;2024-03-08T09:37:54;6.60;71.40
42755;DHT22;28407;51.830;5.684;2024-03-08T09:39:56;6.60;71.20
42755;DHT22;28407;51.830;5.684;2024-03-08T09:41:58;6.70;71.30
42755;DHT22;28407;51.830;5.684;2024-03-08T09:44:00;6.70;71.20
42755;DHT22;28407;51.830;5.684;2024-03-08T09:46:00;6.70;71.10
42755;DHT22;28407;51.830;5.684;2024-03-08T09:48:02;6.80;71.10
42755;DHT22;28407;51.830;5.684;2024-03-08T09:50:04;6.80;71.10
42755;DHT22;28407;51.830;5.684;2024-03-08T09:52:06;6.80;71.00
42755;DHT22;28407;51.830;5.684;2024-03-08T09:54:07;6.90;71.00
42755;DHT22;28407;51.830;5.684;2024-03-08T09:56:08;6.90;70.90
42755;DHT22;28407;51.830;5.684;2024-03-08T09:58:13;7.00;70.90
42755;DHT22;28407;51.830;5.684;2024-03-08T10:00:33;7.00;70.80
42755;DHT22;28407;51.830;5.684;2024-03-08T10:02:34;7.00;70.70
42755;DHT22;28407;51.830;5.684;2024-03-08T10:04:35;7.00;70.50
42755;DHT22;28407;51.830;5.684;2024-03-08T10:06:36;7.10;70.50
42755;DHT22;28407;51.830;5.684;2024-03-08T10:08:37;7.10;70.50
42755;DHT22;28407;51.830;5.684;2024-03-08T10:10:37;7.20;70.60
42755;DHT22;28407;51.830;5.684;2024-03-08T10:12:38;7.20;70.50
42755;DHT22;28407;51.830;5.684;2024-03-08T10:14:40;7.30;70.40
42755;DHT22;28407;51.830;5.684;2024-03-08T10:16:41;7.30;70.40
42755;DHT22;28407;51.830;5.684;2024-03-08T10:18:42;7.30;70.20
42755;DHT22;28407;51.830;5.684;2024-03-08T10:20:46;7.40;70.30
42755;DHT22;28407;51.830;5.684;2024-03-08T10:22:47;7.30;70.30
42755;DHT22;28407;51.830;5.684;2024-03-08T10:24:48;7.40;70.40
42755;DHT22;28407;51.830;5.684;2024-03-08T10:26:52;7.50;70.40
42755;DHT22;28407;51.830;5.684;2024-03-08T10:28:53;7.50;70.30
42755;DHT22;28407;51.830;5.684;2024-03-08T10:30:58;7.50;70.30
42755;DHT22;28407;51.830;5.684;2024-03-08T10:32:59;7.60;70.30
42755;DHT22;28407;51.830;5.684;2024-03-08T10:35:00;7.60;70.20
42755;DHT22;28407;51.830;5.684;2024-03-08T10:37:03;7.70;70.00
42755;DHT22;28407;51.830;5.684;2024-03-08T10:39:24;7.80;70.00
42755;DHT22;28407;51.830;5.684;2024-03-08T10:41:30;7.80;69.90
42755;DHT22;28407;51.830;5.684;2024-03-08T10:50:20;8.00;69.60
42755;DHT22;28407;51.830;5.684;2024-03-08T10:52:23;8.10;69.60
42755;DHT22;28407;51.830;5.684;2024-03-08T10:54:28;8.10;69.50
42755;DHT22;28407;51.830;5.684;2024-03-08T10:56:29;8.20;69.40
42755;DHT22;28407;51.830;5.684;2024-03-08T10:58:30;8.20;69.20
42755;DHT22;28407;51.830;5.684;2024-03-08T11:00:32;8.30;69.10
42755;DHT22;28407;51.830;5.684;2024-03-08T11:02:33;8.30;69.10
42755;DHT22;28407;51.830;5.684;2024-03-08T11:04:33;8.30;69.10
42755;DHT22;28407;51.830;5.684;2024-03-08T11:08:38;8.40;68.80
42755;DHT22;28407;51.830;5.684;2024-03-08T11:10:49;8.50;68.70
42755;DHT22;28407;51.830;5.684;2024-03-08T11:12:54;8.50;68.60
42755;DHT22;28407;51.830;5.684;2024-03-08T11:14:59;8.60;68.40
42755;DHT22;28407;51.830;5.684;2024-03-08T11:17:06;8.60;68.30
42755;DHT22;28407;51.830;5.684;2024-03-08T11:21:11;8.70;68.00
42755;DHT22;28407;51.830;5.684;2024-03-08T11:23:22;8.80;67.80
42755;DHT22;28407;51.830;5.684;2024-03-08T11:25:38;8.90;67.50
42755;DHT22;28407;51.830;5.684;2024-03-08T11:27:53;8.90;67.30
42755;DHT22;28407;51.830;5.684;2024-03-08T11:30:04;9.00;67.80
42755;DHT22;28407;51.830;5.684;2024-03-08T11:32:15;9.00;67.70
42755;DHT22;28407;51.830;5.684;2024-03-08T11:34:17;9.10;66.90
42755;DHT22;28407;51.830;5.684;2024-03-08T11:36:23;9.20;66.70
42755;DHT22;28407;51.830;5.684;2024-03-08T11:38:24;9.20;66.30
42755;DHT22;28407;51.830;5.684;2024-03-08T11:40:26;9.30;65.90
42755;DHT22;28407;51.830;5.684;2024-03-08T11:42:27;9.30;65.90
42755;DHT22;28407;51.830;5.684;2024-03-08T11:44:28;9.40;65.60
42755;DHT22;28407;51.830;5.684;2024-03-08T11:46:29;9.50;65.50
42755;DHT22;28407;51.830;5.684;2024-03-08T11:48:30;9.50;65.30
42755;DHT22;28407;51.830;5.684;2024-03-08T11:50:32;9.60;65.40
42755;DHT22;28407;51.830;5.684;2024-03-08T11:52:36;9.60;65.30
42755;DHT22;28407;51.830;5.684;2024-03-08T11:54:37;9.60;65.00
42755;DHT22;28407;51.830;5.684;2024-03-08T11:56:39;9.70;64.90
42755;DHT22;28407;51.830;5.684;2024-03-08T11:58:47;9.80;64.80
42755;DHT22;28407;51.830;5.684;2024-03-08T12:01:08;9.80;64.90
42755;DHT22;28407;51.830;5.684;2024-03-08T12:03:20;9.90;64.90
42755;DHT22;28407;51.830;5.684;2024-03-08T12:05:21;10.00;64.80
42755;DHT22;28407;51.830;5.684;2024-03-08T12:07:21;10.10;64.40
42755;DHT22;28407;51.830;5.684;2024-03-08T12:09:22;10.20;64.40
42755;DHT22;28407;51.830;5.684;2024-03-08T12:11:23;10.30;63.60
42755;DHT22;28407;51.830;5.684;2024-03-08T12:13:32;10.30;63.40
42755;DHT22;28407;51.830;5.684;2024-03-08T12:15:34;10.40;63.40
42755;DHT22;28407;51.830;5.684;2024-03-08T12:17:35;10.40;63.10
42755;DHT22;28407;51.830;5.684;2024-03-08T12:19:39;10.50;62.70
42755;DHT22;28407;51.830;5.684;2024-03-08T12:21:46;10.60;62.70
42755;DHT22;28407;51.830;5.684;2024-03-08T12:24:07;10.60;62.50
42755;DHT22;28407;51.830;5.684;2024-03-08T12:26:23;10.70;62.00
42755;DHT22;28407;51.830;5.684;2024-03-08T12:28:30;10.70;61.90
42755;DHT22;28407;51.830;5.684;2024-03-08T12:30:35;10.80;61.90
42755;DHT22;28407;51.830;5.684;2024-03-08T12:32:35;10.80;61.50
42755;DHT22;28407;51.830;5.684;2024-03-08T12:34:36;10.80;61.20
42755;DHT22;28407;51.830;5.684;2024-03-08T12:36:37;10.90;60.90
42755;DHT22;28407;51.830;5.684;2024-03-08T12:38:47;10.90;61.10
42755;DHT22;28407;51.830;5.684;2024-03-08T12:40:54;10.90;60.90
42755;DHT22;28407;51.830;5.684;2024-03-08T12:42:58;11.00;60.50
42755;DHT22;28407;51.830;5.684;2024-03-08T12:44:59;11.00;60.40
42755;DHT22;28407;51.830;5.684;2024-03-08T12:47:00;11.00;60.30
42755;DHT22;28407;51.830;5.684;2024-03-08T12:49:01;11.10;60.40
42755;DHT22;28407;51.830;5.684;2024-03-08T12:51:04;11.20;60.50
42755;DHT22;28407;51.830;5.684;2024-03-08T12:53:06;11.30;60.30
42755;DHT22;28407;51.830;5.684;2024-03-08T12:55:07;11.30;60.00
42755;DHT22;28407;51.830;5.684;2024-03-08T12:57:10;11.40;60.00
42755;DHT22;28407;51.830;5.684;2024-03-08T12:59:11;11.40;59.50
42755;DHT22;28407;51.830;5.684;2024-03-08T13:01:12;11.50;59.60
42755;DHT22;28407;51.830;5.684;2024-03-08T13:03:14;11.50;59.60
42755;DHT22;28407;51.830;5.684;2024-03-08T13:05:14;11.60;59.20
42755;DHT22;28407;51.830;5.684;2024-03-08T13:07:15;11.60;59.10
42755;DHT22;28407;51.830;5.684;2024-03-08T13:09:17;11.60;59.10
42755;DHT22;28407;51.830;5.684;2024-03-08T13:11:20;11.60;59.10
42755;DHT22;28407;51.830;5.684;2024-03-08T13:13:21;11.60;59.10
42755;DHT22;28407;51.830;5.684;2024-03-08T13:15:23;11.60;59.00